sensor_id;sensor_type;location;lat;lon;timestamp;temperature;humidity
82782;DHT22;72517;47.260;11.422;2023-11-19T00:00:05;5.90;99.90
82782;DHT22;72517;47.260;11.422;2023-11-19T00:02:37;6.00;99.90
82782;DHT22;72517;47.260;11.422;2023-11-19T00:05:04;6.00;99.90
82782;DHT22;72517;47.260;11.422;2023-11-19T00:07:35;6.00;99.90
82782;DHT22;72517;47.260;11.422;2023-11-19T00:10:02;6.00;99.90
82782;DHT22;72517;47.260;11.422;2023-11-19T00:12:41;6.10;99.90
82782;DHT22;72517;47.260;11.422;2023-11-19T00:15:08;6.00;99.90
82782;DHT22;72517;47.260;11.422;2023-11-19T00:17:40;6.00;99.90
82782;DHT22;72517;47.260;11.422;2023-11-19T00:20:13;6.00;99.90
82782;DHT22;72517;47.260;11.422;2023-11-19T00:22:40;5.90;99.90
82782;DHT22;72517;47.260;11.422;2023-11-19T00:25:08;5.90;99.90
82782;DHT22;72517;47.260;11.422;2023-11-19T00:27:36;5.90;99.90
82782;DHT22;72517;47.260;11.422;2023-11-19T00:30:04;5.90;99.90
82782;DHT22;72517;47.260;11.422;2023-11-19T00:32:34;5.90;99.90
82782;DHT22;72517;47.260;11.422;2023-11-19T00:35:02;6.00;99.90
82782;DHT22;72517;47.260;11.422;2023-11-19T00:37:29;6.00;99.90
82782;DHT22;72517;47.260;11.422;2023-11-19T00:39:56;6.10;99.90
82782;DHT22;72517;47.260;11.422;2023-11-19T00:42:24;6.10;99.90
82782;DHT22;72517;47.260;11.422;2023-11-19T00:44:51;6.20;99.90
82782;DHT22;72517;47.260;11.422;2023-11-19T00:47:18;6.20;99.90
82782;DHT22;72517;47.260;11.422;2023-11-19T00:49:49;6.20;99.90
82782;DHT22;72517;47.260;11.422;2023-11-19T00:52:16;6.20;99.90
82782;DHT22;72517;47.260;11.422;2023-11-19T00:54:42;6.20;99.90
82782;DHT22;72517;47.260;11.422;2023-11-19T00:57:09;6.20;99.90
82782;DHT22;72517;47.260;11.422;2023-11-19T00:59:36;6.20;99.90
82782;DHT22;72517;47.260;11.422;2023-11-19T01:02:03;6.30;99.90
82782;DHT22;72517;47.260;11.422;2023-11-19T01:04:35;6.30;99.90
82782;DHT22;72517;47.260;11.422;2023-11-19T01:07:02;6.30;99.90
82782;DHT22;72517;47.260;11.422;2023-11-19T01:09:34;6.30;99.90
82782;DHT22;72517;47.260;11.422;2023-11-19T01:12:01;6.20;99.90
82782;DHT22;72517;47.260;11.422;2023-11-19T01:14:28;6.30;99.90
82782;DHT22;72517;47.260;11.422;2023-11-19T01:16:55;6.30;99.90
82782;DHT22;72517;47.260;11.422;2023-11-19T01:19:23;6.30;99.90
82782;DHT22;72517;47.260;11.422;2023-11-19T01:21:52;6.40;99.90
82782;DHT22;72517;47.260;11.422;2023-11-19T01:24:19;6.40;99.90
82782;DHT22;72517;47.260;11.422;2023-11-19T01:26:46;6.40;99.90
82782;DHT22;72517;47.260;11.422;2023-11-19T01:29:14;6.40;99.90
82782;DHT22;72517;47.260;11.422;2023-11-19T01:31:42;6.40;99.90
82782;DHT22;72517;47.260;11.422;2023-11-19T01:34:10;6.40;99.90
82782;DHT22;72517;47.260;11.422;2023-11-19T01:36:38;6.40;99.90
82782;DHT22;72517;47.260;11.422;2023-11-19T01:39:06;6.40;99.90
82782;DHT22;72517;47.260;11.422;2023-11-19T01:41:36;6.40;99.90
82782;DHT22;72517;47.260;11.422;2023-11-19T01:44:06;6.50;99.90
82782;DHT22;72517;47.260;11.422;2023-11-19T01:46:33;6.50;99.90
82782;DHT22;72517;47.260;11.422;2023-11-19T01:49:02;6.50;99.90
82782;DHT22;72517;47.260;11.422;2023-11-19T01:51:30;6.50;99.90
82782;DHT22;72517;47.260;11.422;2023-11-19T01:53:57;6.50;99.90
82782;DHT22;72517;47.260;11.422;2023-11-19T01:56:26;6.50;99.90
82782;DHT22;72517;47.260;11.422;2023-11-19T01:58:54;6.50;99.90
82782;DHT22;72517;47.260;11.422;2023-11-19T02:01:22;6.50;99.90
82782;DHT22;72517;47.260;11.422;2023-11-19T02:03:51;6.50;99.90
82782;DHT22;72517;47.260;11.422;2023-11-19T02:06:18;6.40;99.90
82782;DHT22;72517;47.260;11.422;2023-11-19T02:08:45;6.40;99.90
82782;DHT22;72517;47.260;11.422;2023-11-19T02:11:12;6.40;99.90
82782;DHT22;72517;47.260;11.422;2023-11-19T02:13:39;6.40;99.90
82782;DHT22;72517;47.260;11.422;2023-11-19T02:16:07;6.40;99.90
82782;DHT22;72517;47.260;11.422;2023-11-19T02:18:35;6.40;99.90
82782;DHT22;72517;47.260;11.422;2023-11-19T02:21:01;6.40;99.90
82782;DHT22;72517;47.260;11.422;2023-11-19T02:23:30;6.40;99.90
82782;DHT22;72517;47.260;11.422;2023-11-19T02:26:08;6.50;99.90
82782;DHT22;72517;47.260;11.422;2023-11-19T02:28:36;6.50;99.90
82782;DHT22;72517;47.260;11.422;2023-11-19T02:31:04;6.50;99.90
82782;DHT22;72517;47.260;11.422;2023-11-19T02:33:35;6.50;99.90
82782;DHT22;72517;47.260;11.422;2023-11-19T02:36:07;6.40;99.90
82782;DHT22;72517;47.260;11.422;2023-11-19T02:38:34;6.50;99.90
82782;DHT22;72517;47.260;11.422;2023-11-19T02:41:03;6.50;99.90
82782;DHT22;72517;47.260;11.422;2023-11-19T02:43:32;6.50;99.90
82782;DHT22;72517;47.260;11.422;2023-11-19T02:46:03;6.40;99.90
82782;DHT22;72517;47.260;11.422;2023-11-19T02:48:35;6.40;99.90
82782;DHT22;72517;47.260;11.422;2023-11-19T02:51:05;6.40;99.90
82782;DHT22;72517;47.260;11.422;2023-11-19T02:53:35;6.40;99.90
82782;DHT22;72517;47.260;11.422;2023-11-19T02:56:02;6.40;99.90
82782;DHT22;72517;47.260;11.422;2023-11-19T02:58:37;6.30;99.90
82782;DHT22;72517;47.260;11.422;2023-11-19T03:01:04;6.30;99.90
82782;DHT22;72517;47.260;11.422;2023-11-19T03:03:38;6.30;99.90
82782;DHT22;72517;47.260;11.422;2023-11-19T03:06:06;6.30;99.90
82782;DHT22;72517;47.260;11.422;2023-11-19T03:08:36;6.30;99.90
82782;DHT22;72517;47.260;11.422;2023-11-19T03:11:03;6.30;99.90
82782;DHT22;72517;47.260;11.422;2023-11-19T03:13:40;6.40;99.90
82782;DHT22;72517;47.260;11.422;2023-11-19T03:16:07;6.40;99.90
82782;DHT22;72517;47.260;11.422;2023-11-19T03:18:35;6.40;99.90
82782;DHT22;72517;47.260;11.422;2023-11-19T03:21:02;6.40;99.90
82782;DHT22;72517;47.260;11.422;2023-11-19T03:23:28;6.40;99.90
82782;DHT22;72517;47.260;11.422;2023-11-19T03:25:56;6.40;99.90
82782;DHT22;72517;47.260;11.422;2023-11-19T03:28:23;6.40;99.90
82782;DHT22;72517;47.260;11.422;2023-11-19T03:30:50;6.40;99.90
82782;DHT22;72517;47.260;11.422;2023-11-19T03:33:18;6.50;99.90
82782;DHT22;72517;47.260;11.422;2023-11-19T03:35:45;6.40;99.90
82782;DHT22;72517;47.260;11.422;2023-11-19T03:38:12;6.50;99.90
82782;DHT22;72517;47.260;11.422;2023-11-19T03:40:40;6.50;99.90
82782;DHT22;72517;47.260;11.422;2023-11-19T03:43:06;6.50;99.90
82782;DHT22;72517;47.260;11.422;2023-11-19T03:45:34;6.40;99.90
82782;DHT22;72517;47.260;11.422;2023-11-19T03:48:02;6.40;99.90
82782;DHT22;72517;47.260;11.422;2023-11-19T03:50:29;6.30;99.90
82782;DHT22;72517;47.260;11.422;2023-11-19T03:52:56;6.30;99.90
82782;DHT22;72517;47.260;11.422;2023-11-19T03:55:23;6.30;99.90
82782;DHT22;72517;47.260;11.422;2023-11-19T03:57:50;6.30;99.90
82782;DHT22;72517;47.260;11.422;2023-11-19T04:00:17;6.30;99.90
82782;DHT22;72517;47.260;11.422;2023-11-19T04:02:46;6.40;99.90
82782;DHT22;72517;47.260;11.422;2023-11-19T04:05:13;6.40;99.90
82782;DHT22;72517;47.260;11.422;2023-11-19T04:07:40;6.40;99.90
82782;DHT22;72517;47.260;11.422;2023-11-19T04:10:07;6.40;99.90
82782;DHT22;72517;47.260;11.422;2023-11-19T04:12:35;6.40;99.90
82782;DHT22;72517;47.260;11.422;2023-11-19T04:15:02;6.50;99.90
82782;DHT22;72517;47.260;11.422;2023-11-19T04:17:30;6.50;99.90
82782;DHT22;72517;47.260;11.422;2023-11-19T04:19:56;6.50;99.90
82782;DHT22;72517;47.260;11.422;2023-11-19T04:22:24;6.50;99.90
82782;DHT22;72517;47.260;11.422;2023-11-19T04:24:51;6.60;99.90
82782;DHT22;72517;47.260;11.422;2023-11-19T04:27:18;6.60;99.90
82782;DHT22;72517;47.260;11.422;2023-11-19T04:29:45;6.60;99.90
82782;DHT22;72517;47.260;11.422;2023-11-19T04:32:12;6.50;99.90
82782;DHT22;72517;47.260;11.422;2023-11-19T04:34:39;6.50;99.90
82782;DHT22;72517;47.260;11.422;2023-11-19T04:37:07;6.50;99.90
82782;DHT22;72517;47.260;11.422;2023-11-19T04:39:35;6.50;99.90
82782;DHT22;72517;47.260;11.422;2023-11-19T04:42:02;6.50;99.90
82782;DHT22;72517;47.260;11.422;2023-11-19T04:44:30;6.50;99.90
82782;DHT22;72517;47.260;11.422;2023-11-19T04:46:57;6.50;99.90
82782;DHT22;72517;47.260;11.422;2023-11-19T04:49:23;6.50;99.90
82782;DHT22;72517;47.260;11.422;2023-11-19T04:51:52;6.50;99.90
82782;DHT22;72517;47.260;11.422;2023-11-19T04:54:19;6.50;99.90
82782;DHT22;72517;47.260;11.422;2023-11-19T04:56:46;6.50;99.90
82782;DHT22;72517;47.260;11.422;2023-11-19T04:59:13;6.50;99.90
82782;DHT22;72517;47.260;11.422;2023-11-19T05:01:39;6.50;99.90
82782;DHT22;72517;47.260;11.422;2023-11-19T05:04:07;6.60;99.90
82782;DHT22;72517;47.260;11.422;2023-11-19T05:06:34;6.60;99.90
82782;DHT22;72517;47.260;11.422;2023-11-19T05:09:02;6.60;99.90
82782;DHT22;72517;47.260;11.422;2023-11-19T05:11:30;6.60;99.90
82782;DHT22;72517;47.260;11.422;2023-11-19T05:13:57;6.60;99.90
82782;DHT22;72517;47.260;11.422;2023-11-19T05:16:24;6.60;99.90
82782;DHT22;72517;47.260;11.422;2023-11-19T05:18:51;6.50;99.90
82782;DHT22;72517;47.260;11.422;2023-11-19T05:21:18;6.50;99.90
82782;DHT22;72517;47.260;11.422;2023-11-19T05:23:45;6.40;99.90
82782;DHT22;72517;47.260;11.422;2023-11-19T05:26:21;6.40;99.90
82782;DHT22;72517;47.260;11.422;2023-11-19T05:28:49;6.40;99.90
82782;DHT22;72517;47.260;11.422;2023-11-19T05:31:17;6.40;99.90
82782;DHT22;72517;47.260;11.422;2023-11-19T05:33:44;6.50;99.90
82782;DHT22;72517;47.260;11.422;2023-11-19T05:36:12;6.50;99.90
82782;DHT22;72517;47.260;11.422;2023-11-19T05:38:39;6.50;99.90
82782;DHT22;72517;47.260;11.422;2023-11-19T05:41:06;6.50;99.90
82782;DHT22;72517;47.260;11.422;2023-11-19T05:43:33;6.50;99.90
82782;DHT22;72517;47.260;11.422;2023-11-19T05:45:59;6.50;99.90
82782;DHT22;72517;47.260;11.422;2023-11-19T05:48:27;6.50;99.90
82782;DHT22;72517;47.260;11.422;2023-11-19T05:50:54;6.50;99.90
82782;DHT22;72517;47.260;11.422;2023-11-19T05:53:21;6.50;99.90
82782;DHT22;72517;47.260;11.422;2023-11-19T05:55:48;6.50;99.90
82782;DHT22;72517;47.260;11.422;2023-11-19T05:58:24;6.50;99.90
82782;DHT22;72517;47.260;11.422;2023-11-19T06:00:57;6.50;99.90
82782;DHT22;72517;47.260;11.422;2023-11-19T06:03:26;6.50;99.90
82782;DHT22;72517;47.260;11.422;2023-11-19T06:05:53;6.50;99.90
82782;DHT22;72517;47.260;11.422;2023-11-19T06:08:20;6.50;99.90
82782;DHT22;72517;47.260;11.422;2023-11-19T06:10:48;6.50;99.90
82782;DHT22;72517;47.260;11.422;2023-11-19T06:13:16;6.50;99.90
82782;DHT22;72517;47.260;11.422;2023-11-19T06:15:43;6.40;99.90
82782;DHT22;72517;47.260;11.422;2023-11-19T06:18:10;6.40;99.90
82782;DHT22;72517;47.260;11.422;2023-11-19T06:20:38;6.50;99.90
82782;DHT22;72517;47.260;11.422;2023-11-19T06:23:05;6.50;99.90
82782;DHT22;72517;47.260;11.422;2023-11-19T06:25:32;6.60;99.90
82782;DHT22;72517;47.260;11.422;2023-11-19T06:28:00;6.60;99.90
82782;DHT22;72517;47.260;11.422;2023-11-19T06:30:27;6.60;99.90
82782;DHT22;72517;47.260;11.422;2023-11-19T06:32:56;6.70;99.90
82782;DHT22;72517;47.260;11.422;2023-11-19T06:35:24;6.70;99.90
82782;DHT22;72517;47.260;11.422;2023-11-19T06:37:50;6.80;99.90
82782;DHT22;72517;47.260;11.422;2023-11-19T06:40:17;6.70;99.90
82782;DHT22;72517;47.260;11.422;2023-11-19T06:42:44;6.70;99.90
82782;DHT22;72517;47.260;11.422;2023-11-19T06:45:11;6.70;99.90
82782;DHT22;72517;47.260;11.422;2023-11-19T06:47:38;6.70;99.90
82782;DHT22;72517;47.260;11.422;2023-11-19T06:50:05;6.60;99.90
82782;DHT22;72517;47.260;11.422;2023-11-19T06:52:33;6.60;99.90
82782;DHT22;72517;47.260;11.422;2023-11-19T06:54:59;6.60;99.90
82782;DHT22;72517;47.260;11.422;2023-11-19T06:57:26;6.60;99.90
82782;DHT22;72517;47.260;11.422;2023-11-19T06:59:54;6.60;99.90
82782;DHT22;72517;47.260;11.422;2023-11-19T07:02:21;6.70;99.90
82782;DHT22;72517;47.260;11.422;2023-11-19T07:04:48;6.90;99.90
82782;DHT22;72517;47.260;11.422;2023-11-19T07:07:15;6.90;99.90
82782;DHT22;72517;47.260;11.422;2023-11-19T07:09:42;7.10;99.90
82782;DHT22;72517;47.260;11.422;2023-11-19T07:12:09;7.10;99.90
82782;DHT22;72517;47.260;11.422;2023-11-19T07:14:36;7.10;99.90
82782;DHT22;72517;47.260;11.422;2023-11-19T07:17:03;7.10;99.90
82782;DHT22;72517;47.260;11.422;2023-11-19T07:19:29;7.10;99.90
82782;DHT22;72517;47.260;11.422;2023-11-19T07:21:56;7.10;99.90
82782;DHT22;72517;47.260;11.422;2023-11-19T07:24:23;7.10;99.90
82782;DHT22;72517;47.260;11.422;2023-11-19T07:26:50;7.10;99.90
82782;DHT22;72517;47.260;11.422;2023-11-19T07:29:17;7.00;99.90
82782;DHT22;72517;47.260;11.422;2023-11-19T07:31:44;7.00;99.90
82782;DHT22;72517;47.260;11.422;2023-11-19T07:34:11;7.00;99.90
82782;DHT22;72517;47.260;11.422;2023-11-19T07:36:39;7.00;99.90
82782;DHT22;72517;47.260;11.422;2023-11-19T07:39:06;7.00;99.90
82782;DHT22;72517;47.260;11.422;2023-11-19T07:41:34;7.00;99.90
82782;DHT22;72517;47.260;11.422;2023-11-19T07:44:01;7.00;99.90
82782;DHT22;72517;47.260;11.422;2023-11-19T07:46:27;7.10;99.90
82782;DHT22;72517;47.260;11.422;2023-11-19T07:48:54;7.00;99.90
82782;DHT22;72517;47.260;11.422;2023-11-19T07:51:21;7.10;99.90
82782;DHT22;72517;47.260;11.422;2023-11-19T07:53:48;7.20;99.90
82782;DHT22;72517;47.260;11.422;2023-11-19T07:56:15;7.20;99.90
82782;DHT22;72517;47.260;11.422;2023-11-19T07:58:41;7.20;99.90
82782;DHT22;72517;47.260;11.422;2023-11-19T08:01:09;7.20;99.90
82782;DHT22;72517;47.260;11.422;2023-11-19T08:03:36;7.30;99.90
82782;DHT22;72517;47.260;11.422;2023-11-19T08:06:04;7.20;99.90
82782;DHT22;72517;47.260;11.422;2023-11-19T08:08:30;7.30;99.90
82782;DHT22;72517;47.260;11.422;2023-11-19T08:10:58;7.30;99.90
82782;DHT22;72517;47.260;11.422;2023-11-19T08:13:25;7.30;99.90
82782;DHT22;72517;47.260;11.422;2023-11-19T08:15:52;7.30;99.90
82782;DHT22;72517;47.260;11.422;2023-11-19T08:18:19;7.50;99.90
82782;DHT22;72517;47.260;11.422;2023-11-19T08:20:46;7.50;99.90
82782;DHT22;72517;47.260;11.422;2023-11-19T08:23:18;7.70;99.90
82782;DHT22;72517;47.260;11.422;2023-11-19T08:25:45;7.80;99.90
82782;DHT22;72517;47.260;11.422;2023-11-19T08:28:12;7.80;99.90
82782;DHT22;72517;47.260;11.422;2023-11-19T08:30:39;7.90;99.90
82782;DHT22;72517;47.260;11.422;2023-11-19T08:33:06;7.90;99.90
82782;DHT22;72517;47.260;11.422;2023-11-19T08:35:33;7.90;99.90
82782;DHT22;72517;47.260;11.422;2023-11-19T08:38:00;8.00;99.90
82782;DHT22;72517;47.260;11.422;2023-11-19T08:40:27;8.00;99.90
82782;DHT22;72517;47.260;11.422;2023-11-19T08:42:55;8.10;99.90
82782;DHT22;72517;47.260;11.422;2023-11-19T08:45:22;8.20;99.90
82782;DHT22;72517;47.260;11.422;2023-11-19T08:47:49;8.30;99.90
82782;DHT22;72517;47.260;11.422;2023-11-19T08:50:16;8.50;99.90
82782;DHT22;72517;47.260;11.422;2023-11-19T08:52:43;8.50;99.90
82782;DHT22;72517;47.260;11.422;2023-11-19T08:55:09;8.60;99.90
82782;DHT22;72517;47.260;11.422;2023-11-19T08:57:39;8.60;99.90
82782;DHT22;72517;47.260;11.422;2023-11-19T09:00:06;8.70;99.90
82782;DHT22;72517;47.260;11.422;2023-11-19T09:02:37;8.80;99.90
82782;DHT22;72517;47.260;11.422;2023-11-19T09:05:05;9.20;99.90
82782;DHT22;72517;47.260;11.422;2023-11-19T09:07:33;9.50;99.90
82782;DHT22;72517;47.260;11.422;2023-11-19T09:09:59;9.80;99.90
82782;DHT22;72517;47.260;11.422;2023-11-19T09:12:27;10.00;99.90
82782;DHT22;72517;47.260;11.422;2023-11-19T09:14:53;10.30;99.90
82782;DHT22;72517;47.260;11.422;2023-11-19T09:17:20;10.70;99.10
82782;DHT22;72517;47.260;11.422;2023-11-19T09:19:47;11.00;97.70
82782;DHT22;72517;47.260;11.422;2023-11-19T09:22:14;11.30;96.30
82782;DHT22;72517;47.260;11.422;2023-11-19T09:24:41;11.50;94.10
82782;DHT22;72517;47.260;11.422;2023-11-19T09:27:09;11.60;93.40
82782;DHT22;72517;47.260;11.422;2023-11-19T09:29:37;11.50;92.80
82782;DHT22;72517;47.260;11.422;2023-11-19T09:32:04;11.50;93.20
82782;DHT22;72517;47.260;11.422;2023-11-19T09:34:31;11.80;93.50
82782;DHT22;72517;47.260;11.422;2023-11-19T09:36:58;12.70;92.10
82782;DHT22;72517;47.260;11.422;2023-11-19T09:39:24;13.00;88.60
82782;DHT22;72517;47.260;11.422;2023-11-19T09:41:52;13.00;86.20
82782;DHT22;72517;47.260;11.422;2023-11-19T09:44:19;12.90;86.00
82782;DHT22;72517;47.260;11.422;2023-11-19T09:46:46;12.80;85.30
82782;DHT22;72517;47.260;11.422;2023-11-19T09:49:14;12.40;85.60
82782;DHT22;72517;47.260;11.422;2023-11-19T09:51:42;12.10;87.20
82782;DHT22;72517;47.260;11.422;2023-11-19T09:54:09;12.00;88.90
82782;DHT22;72517;47.260;11.422;2023-11-19T09:56:39;11.90;89.60
82782;DHT22;72517;47.260;11.422;2023-11-19T09:59:07;12.10;88.50
82782;DHT22;72517;47.260;11.422;2023-11-19T10:01:36;12.50;88.50
82782;DHT22;72517;47.260;11.422;2023-11-19T10:04:03;13.20;87.70
82782;DHT22;72517;47.260;11.422;2023-11-19T10:06:31;18.50;76.30
82782;DHT22;72517;47.260;11.422;2023-11-19T10:08:57;22.50;59.10
82782;DHT22;72517;47.260;11.422;2023-11-19T10:11:25;23.70;49.40
82782;DHT22;72517;47.260;11.422;2023-11-19T10:13:53;23.60;47.60
82782;DHT22;72517;47.260;11.422;2023-11-19T10:16:20;26.10;45.30
82782;DHT22;72517;47.260;11.422;2023-11-19T10:18:48;27.00;41.70
82782;DHT22;72517;47.260;11.422;2023-11-19T10:21:18;26.40;39.50
82782;DHT22;72517;47.260;11.422;2023-11-19T10:24:03;25.10;40.40
82782;DHT22;72517;47.260;11.422;2023-11-19T10:26:30;23.70;41.20
82782;DHT22;72517;47.260;11.422;2023-11-19T10:28:59;22.10;42.70
82782;DHT22;72517;47.260;11.422;2023-11-19T10:31:26;20.20;45.00
82782;DHT22;72517;47.260;11.422;2023-11-19T10:33:53;19.50;46.60
82782;DHT22;72517;47.260;11.422;2023-11-19T10:36:20;19.50;47.80
82782;DHT22;72517;47.260;11.422;2023-11-19T10:38:56;20.00;47.60
82782;DHT22;72517;47.260;11.422;2023-11-19T10:41:31;19.40;47.40
82782;DHT22;72517;47.260;11.422;2023-11-19T10:43:59;18.90;48.90
82782;DHT22;72517;47.260;11.422;2023-11-19T10:46:39;22.10;49.70
82782;DHT22;72517;47.260;11.422;2023-11-19T10:49:07;23.10;45.00
82782;DHT22;72517;47.260;11.422;2023-11-19T10:51:35;23.20;43.90
82782;DHT22;72517;47.260;11.422;2023-11-19T10:54:03;24.30;45.20
82782;DHT22;72517;47.260;11.422;2023-11-19T10:56:33;24.50;41.90
82782;DHT22;72517;47.260;11.422;2023-11-19T10:59:01;25.20;41.10
82782;DHT22;72517;47.260;11.422;2023-11-19T11:01:39;25.90;40.90
82782;DHT22;72517;47.260;11.422;2023-11-19T11:04:14;27.70;38.80
82782;DHT22;72517;47.260;11.422;2023-11-19T11:06:43;28.70;37.70
82782;DHT22;72517;47.260;11.422;2023-11-19T11:09:11;29.50;36.30
82782;DHT22;72517;47.260;11.422;2023-11-19T11:11:40;30.50;34.50
82782;DHT22;72517;47.260;11.422;2023-11-19T11:14:11;29.30;34.20
82782;DHT22;72517;47.260;11.422;2023-11-19T11:16:42;29.20;36.40
82782;DHT22;72517;47.260;11.422;2023-11-19T11:19:10;29.70;35.30
82782;DHT22;72517;47.260;11.422;2023-11-19T11:21:40;31.70;33.40
82782;DHT22;72517;47.260;11.422;2023-11-19T11:24:39;32.30;32.60
82782;DHT22;72517;47.260;11.422;2023-11-19T11:27:17;33.20;31.30
82782;DHT22;72517;47.260;11.422;2023-11-19T11:38:09;32.10;32.20
82782;DHT22;72517;47.260;11.422;2023-11-19T11:40:35;34.20;30.80
82782;DHT22;72517;47.260;11.422;2023-11-19T11:43:03;36.30;29.30
82782;DHT22;72517;47.260;11.422;2023-11-19T11:45:38;35.90;28.30
82782;DHT22;72517;47.260;11.422;2023-11-19T11:48:12;36.00;27.40
82782;DHT22;72517;47.260;11.422;2023-11-19T11:50:52;33.90;28.00
82782;DHT22;72517;47.260;11.422;2023-11-19T11:53:21;32.10;29.60
82782;DHT22;72517;47.260;11.422;2023-11-19T11:58:21;28.90;31.60
82782;DHT22;72517;47.260;11.422;2023-11-19T12:00:52;27.10;33.60
82782;DHT22;72517;47.260;11.422;2023-11-19T12:03:22;25.60;35.30
82782;DHT22;72517;47.260;11.422;2023-11-19T12:05:49;26.50;35.90
82782;DHT22;72517;47.260;11.422;2023-11-19T12:08:23;25.50;36.00
82782;DHT22;72517;47.260;11.422;2023-11-19T12:10:52;24.70;37.50
82782;DHT22;72517;47.260;11.422;2023-11-19T12:13:20;24.00;38.30
82782;DHT22;72517;47.260;11.422;2023-11-19T12:18:26;22.90;39.30
82782;DHT22;72517;47.260;11.422;2023-11-19T12:20:54;21.80;40.40
82782;DHT22;72517;47.260;11.422;2023-11-19T12:23:21;20.80;42.00
82782;DHT22;72517;47.260;11.422;2023-11-19T12:25:48;19.80;43.60
82782;DHT22;72517;47.260;11.422;2023-11-19T12:28:16;19.20;45.10
82782;DHT22;72517;47.260;11.422;2023-11-19T12:30:43;19.20;46.30
82782;DHT22;72517;47.260;11.422;2023-11-19T12:33:11;20.20;46.60
82782;DHT22;72517;47.260;11.422;2023-11-19T12:35:42;23.30;44.50
82782;DHT22;72517;47.260;11.422;2023-11-19T12:38:23;26.40;40.30
82782;DHT22;72517;47.260;11.422;2023-11-19T12:41:09;30.10;36.90
82782;DHT22;72517;47.260;11.422;2023-11-19T12:43:38;33.60;32.10
82782;DHT22;72517;47.260;11.422;2023-11-19T12:46:21;36.50;29.80
82782;DHT22;72517;47.260;11.422;2023-11-19T12:48:49;38.00;28.10
82782;DHT22;72517;47.260;11.422;2023-11-19T12:51:17;39.20;27.10
82782;DHT22;72517;47.260;11.422;2023-11-19T12:53:52;38.00;26.60
82782;DHT22;72517;47.260;11.422;2023-11-19T12:56:20;35.80;27.10
82782;DHT22;72517;47.260;11.422;2023-11-19T12:58:48;32.70;28.70
82782;DHT22;72517;47.260;11.422;2023-11-19T13:01:19;29.90;30.90
82782;DHT22;72517;47.260;11.422;2023-11-19T13:03:47;27.80;33.90
82782;DHT22;72517;47.260;11.422;2023-11-19T13:06:16;25.20;36.90
82782;DHT22;72517;47.260;11.422;2023-11-19T13:08:48;24.10;39.40
82782;DHT22;72517;47.260;11.422;2023-11-19T13:11:30;22.50;40.40
82782;DHT22;72517;47.260;11.422;2023-11-19T13:13:59;21.30;41.80
82782;DHT22;72517;47.260;11.422;2023-11-19T13:16:27;20.10;43.50
82782;DHT22;72517;47.260;11.422;2023-11-19T13:18:54;18.80;45.60
82782;DHT22;72517;47.260;11.422;2023-11-19T13:21:23;17.70;48.00
82782;DHT22;72517;47.260;11.422;2023-11-19T13:23:50;17.00;49.90
82782;DHT22;72517;47.260;11.422;2023-11-19T13:26:17;16.60;51.40
82782;DHT22;72517;47.260;11.422;2023-11-19T13:28:44;15.90;53.70
82782;DHT22;72517;47.260;11.422;2023-11-19T13:31:11;15.20;56.10
82782;DHT22;72517;47.260;11.422;2023-11-19T13:33:38;14.90;58.40
82782;DHT22;72517;47.260;11.422;2023-11-19T13:36:05;14.60;60.60
82782;DHT22;72517;47.260;11.422;2023-11-19T13:38:36;14.20;63.00
82782;DHT22;72517;47.260;11.422;2023-11-19T13:41:03;13.90;65.70
82782;DHT22;72517;47.260;11.422;2023-11-19T13:43:31;13.60;68.20
82782;DHT22;72517;47.260;11.422;2023-11-19T13:45:58;13.40;70.60
82782;DHT22;72517;47.260;11.422;2023-11-19T13:48:25;13.30;73.20
82782;DHT22;72517;47.260;11.422;2023-11-19T13:50:52;13.20;76.60
82782;DHT22;72517;47.260;11.422;2023-11-19T13:53:19;13.20;78.60
82782;DHT22;72517;47.260;11.422;2023-11-19T13:55:46;13.20;81.00
82782;DHT22;72517;47.260;11.422;2023-11-19T13:58:12;13.40;82.70
82782;DHT22;72517;47.260;11.422;2023-11-19T14:00:39;13.30;84.10
82782;DHT22;72517;47.260;11.422;2023-11-19T14:03:07;13.30;85.30
82782;DHT22;72517;47.260;11.422;2023-11-19T14:05:34;13.30;86.10
82782;DHT22;72517;47.260;11.422;2023-11-19T14:08:01;13.20;87.50
82782;DHT22;72517;47.260;11.422;2023-11-19T14:10:28;13.00;89.90
82782;DHT22;72517;47.260;11.422;2023-11-19T14:12:55;13.00;91.30
82782;DHT22;72517;47.260;11.422;2023-11-19T14:15:22;12.70;92.40
82782;DHT22;72517;47.260;11.422;2023-11-19T14:17:49;12.50;94.10
82782;DHT22;72517;47.260;11.422;2023-11-19T14:20:16;12.40;95.20
82782;DHT22;72517;47.260;11.422;2023-11-19T14:22:44;12.20;97.40
82782;DHT22;72517;47.260;11.422;2023-11-19T14:25:13;12.10;98.50
82782;DHT22;72517;47.260;11.422;2023-11-19T14:27:41;11.90;99.70
82782;DHT22;72517;47.260;11.422;2023-11-19T14:30:12;11.70;99.90
82782;DHT22;72517;47.260;11.422;2023-11-19T14:32:41;11.60;99.90
82782;DHT22;72517;47.260;11.422;2023-11-19T14:35:10;11.50;99.90
82782;DHT22;72517;47.260;11.422;2023-11-19T14:37:40;11.50;99.90
82782;DHT22;72517;47.260;11.422;2023-11-19T14:40:07;11.50;99.90
82782;DHT22;72517;47.260;11.422;2023-11-19T14:42:37;11.50;99.90
82782;DHT22;72517;47.260;11.422;2023-11-19T14:45:06;11.50;99.90
82782;DHT22;72517;47.260;11.422;2023-11-19T14:47:33;11.50;99.90
82782;DHT22;72517;47.260;11.422;2023-11-19T14:50:00;11.40;99.90
82782;DHT22;72517;47.260;11.422;2023-11-19T14:52:28;11.30;99.90
82782;DHT22;72517;47.260;11.422;2023-11-19T14:54:55;11.30;99.90
82782;DHT22;72517;47.260;11.422;2023-11-19T14:57:22;11.40;99.90
82782;DHT22;72517;47.260;11.422;2023-11-19T14:59:48;11.30;99.90
82782;DHT22;72517;47.260;11.422;2023-11-19T15:02:15;11.20;99.90
82782;DHT22;72517;47.260;11.422;2023-11-19T15:04:42;11.20;99.90
82782;DHT22;72517;47.260;11.422;2023-11-19T15:07:09;11.10;99.90
82782;DHT22;72517;47.260;11.422;2023-11-19T15:09:37;11.00;99.90
82782;DHT22;72517;47.260;11.422;2023-11-19T15:12:05;11.00;99.90
82782;DHT22;72517;47.260;11.422;2023-11-19T15:14:32;10.90;99.90
82782;DHT22;72517;47.260;11.422;2023-11-19T15:16:59;10.90;99.90
82782;DHT22;72517;47.260;11.422;2023-11-19T15:19:26;10.80;99.90
82782;DHT22;72517;47.260;11.422;2023-11-19T15:21:53;10.80;99.90
82782;DHT22;72517;47.260;11.422;2023-11-19T15:24:20;10.90;99.90
82782;DHT22;72517;47.260;11.422;2023-11-19T15:26:47;10.90;99.90
82782;DHT22;72517;47.260;11.422;2023-11-19T15:29:14;10.80;99.90
82782;DHT22;72517;47.260;11.422;2023-11-19T15:31:41;10.70;99.90
82782;DHT22;72517;47.260;11.422;2023-11-19T15:34:07;10.60;99.90
82782;DHT22;72517;47.260;11.422;2023-11-19T15:36:34;10.50;99.90
82782;DHT22;72517;47.260;11.422;2023-11-19T15:39:02;10.50;99.90
82782;DHT22;72517;47.260;11.422;2023-11-19T15:41:29;10.50;99.90
82782;DHT22;72517;47.260;11.422;2023-11-19T15:43:57;10.50;99.90